sensor_id;sensor_type;location;lat;lon;timestamp;pressure;altitude;pressure_sealevel;temperature;humidity
30598;BME280;17365;48.878;8.334;2023-03-14T00:01:19;98396.72;;;12.23;80.32
30598;BME280;17365;48.878;8.334;2023-03-14T00:03:47;98391.78;;;12.14;80.85
30598;BME280;17365;48.878;8.334;2023-03-14T00:06:12;98378.81;;;12.14;80.68
30598;BME280;17365;48.878;8.334;2023-03-14T00:08:38;98376.69;;;12.26;80.03
30598;BME280;17365;48.878;8.334;2023-03-14T00:11:24;98378.44;;;12.25;80.61
30598;BME280;17365;48.878;8.334;2023-03-14T00:13:49;98374.28;;;12.19;80.49
30598;BME280;17365;48.878;8.334;2023-03-14T00:16:15;98363.09;;;12.17;80.58
30598;BME280;17365;48.878;8.334;2023-03-14T00:18:40;98356.09;;;12.19;80.32
30598;BME280;17365;48.878;8.334;2023-03-14T00:21:06;98359.44;;;12.23;79.83
30598;BME280;17365;48.878;8.334;2023-03-14T00:23:32;98366.84;;;12.35;78.55
30598;BME280;17365;48.878;8.334;2023-03-14T00:25:58;98349.31;;;12.40;78.42
30598;BME280;17365;48.878;8.334;2023-03-14T00:28:24;98361.66;;;12.35;78.01
30598;BME280;17365;48.878;8.334;2023-03-14T00:30:49;98357.81;;;12.45;77.76
30598;BME280;17365;48.878;8.334;2023-03-14T00:33:14;98350.19;;;12.41;77.13
30598;BME280;17365;48.878;8.334;2023-03-14T00:35:39;98347.47;;;12.44;76.42
30598;BME280;17365;48.878;8.334;2023-03-14T00:38:04;98334.63;;;12.39;77.17
30598;BME280;17365;48.878;8.334;2023-03-14T00:40:30;98362.34;;;12.40;77.47
30598;BME280;17365;48.878;8.334;2023-03-14T00:42:55;98363.91;;;12.46;77.52
30598;BME280;17365;48.878;8.334;2023-03-14T00:45:20;98381.31;;;12.42;77.59
30598;BME280;17365;48.878;8.334;2023-03-14T00:47:45;98386.59;;;12.41;78.05
30598;BME280;17365;48.878;8.334;2023-03-14T00:50:11;98404.38;;;12.53;77.54
30598;BME280;17365;48.878;8.334;2023-03-14T00:52:36;98403.75;;;12.46;78.36
30598;BME280;17365;48.878;8.334;2023-03-14T00:55:01;98411.13;;;12.32;80.05
30598;BME280;17365;48.878;8.334;2023-03-14T00:57:27;98399.31;;;12.23;81.09
30598;BME280;17365;48.878;8.334;2023-03-14T00:59:52;98401.97;;;12.20;82.08
30598;BME280;17365;48.878;8.334;2023-03-14T01:02:17;98405.34;;;12.24;82.57
30598;BME280;17365;48.878;8.334;2023-03-14T01:04:42;98399.59;;;12.14;82.47
30598;BME280;17365;48.878;8.334;2023-03-14T01:07:08;98397.69;;;12.19;81.71
30598;BME280;17365;48.878;8.334;2023-03-14T01:09:33;98391.84;;;12.13;81.94
30598;BME280;17365;48.878;8.334;2023-03-14T01:11:58;98382.47;;;12.07;82.43
30598;BME280;17365;48.878;8.334;2023-03-14T01:14:23;98372.94;;;12.08;82.60
30598;BME280;17365;48.878;8.334;2023-03-14T01:16:48;98378.03;;;12.11;82.35
30598;BME280;17365;48.878;8.334;2023-03-14T01:19:14;98368.63;;;12.07;82.69
30598;BME280;17365;48.878;8.334;2023-03-14T01:21:39;98367.69;;;12.09;83.13
30598;BME280;17365;48.878;8.334;2023-03-14T01:24:04;98359.19;;;12.04;82.78
30598;BME280;17365;48.878;8.334;2023-03-14T01:26:30;98353.16;;;12.04;83.12
30598;BME280;17365;48.878;8.334;2023-03-14T01:28:56;98342.88;;;11.99;83.70
30598;BME280;17365;48.878;8.334;2023-03-14T01:31:22;98341.34;;;11.93;84.07
30598;BME280;17365;48.878;8.334;2023-03-14T01:33:47;98331.66;;;11.99;84.13
30598;BME280;17365;48.878;8.334;2023-03-14T01:36:12;98324.63;;;12.02;82.86
30598;BME280;17365;48.878;8.334;2023-03-14T01:38:38;98323.34;;;11.87;83.27
30598;BME280;17365;48.878;8.334;2023-03-14T01:41:05;98306.91;;;11.87;82.70
30598;BME280;17365;48.878;8.334;2023-03-14T01:43:30;98304.56;;;11.78;83.02
30598;BME280;17365;48.878;8.334;2023-03-14T01:51:00;98293.13;;;11.85;82.71
30598;BME280;17365;48.878;8.334;2023-03-14T01:53:27;98279.47;;;11.78;83.05
30598;BME280;17365;48.878;8.334;2023-03-14T01:55:52;98287.50;;;11.71;83.75
30598;BME280;17365;48.878;8.334;2023-03-14T01:58:21;98285.50;;;11.80;82.59
30598;BME280;17365;48.878;8.334;2023-03-14T02:00:47;98290.88;;;11.73;82.99
30598;BME280;17365;48.878;8.334;2023-03-14T02:03:14;98292.88;;;11.64;82.93
30598;BME280;17365;48.878;8.334;2023-03-14T02:05:41;98298.69;;;11.73;82.83
30598;BME280;17365;48.878;8.334;2023-03-14T02:08:08;98306.75;;;11.63;82.88
30598;BME280;17365;48.878;8.334;2023-03-14T02:10:38;98317.78;;;11.72;82.09
30598;BME280;17365;48.878;8.334;2023-03-14T02:13:05;98313.38;;;11.74;81.85
30598;BME280;17365;48.878;8.334;2023-03-14T02:15:31;98308.34;;;11.69;82.55
30598;BME280;17365;48.878;8.334;2023-03-14T02:17:57;98298.91;;;11.65;82.47
30598;BME280;17365;48.878;8.334;2023-03-14T02:23:06;98289.88;;;11.77;81.43
30598;BME280;17365;48.878;8.334;2023-03-14T02:25:51;98293.78;;;11.63;81.93
30598;BME280;17365;48.878;8.334;2023-03-14T02:28:21;98291.28;;;11.60;82.30
30598;BME280;17365;48.878;8.334;2023-03-14T02:30:46;98292.97;;;11.61;81.87
30598;BME280;17365;48.878;8.334;2023-03-14T02:33:13;98292.94;;;11.63;81.43
30598;BME280;17365;48.878;8.334;2023-03-14T02:36:00;98278.53;;;11.53;81.85
30598;BME280;17365;48.878;8.334;2023-03-14T02:38:29;98272.44;;;11.54;81.58
30598;BME280;17365;48.878;8.334;2023-03-14T02:40:56;98280.91;;;11.60;81.22
30598;BME280;17365;48.878;8.334;2023-03-14T02:43:21;98282.03;;;11.52;81.56
30598;BME280;17365;48.878;8.334;2023-03-14T02:45:47;98286.53;;;11.47;81.47
30598;BME280;17365;48.878;8.334;2023-03-14T02:48:20;98273.50;;;11.48;80.91
30598;BME280;17365;48.878;8.334;2023-03-14T02:50:47;98274.69;;;11.38;81.36
30598;BME280;17365;48.878;8.334;2023-03-14T02:53:17;98270.16;;;11.43;80.37
30598;BME280;17365;48.878;8.334;2023-03-14T02:55:46;98256.97;;;11.51;79.70
30598;BME280;17365;48.878;8.334;2023-03-14T02:58:11;98250.31;;;11.42;79.90
30598;BME280;17365;48.878;8.334;2023-03-14T03:00:37;98250.97;;;11.49;79.49
30598;BME280;17365;48.878;8.334;2023-03-14T03:03:02;98243.53;;;11.38;79.91
30598;BME280;17365;48.878;8.334;2023-03-14T03:05:27;98237.44;;;11.39;79.42
30598;BME280;17365;48.878;8.334;2023-03-14T03:07:52;98243.47;;;11.40;79.24
30598;BME280;17365;48.878;8.334;2023-03-14T03:10:18;98221.16;;;11.34;79.79
30598;BME280;17365;48.878;8.334;2023-03-14T03:12:43;98230.13;;;11.24;79.88
30598;BME280;17365;48.878;8.334;2023-03-14T03:15:09;98224.69;;;11.31;79.22
30598;BME280;17365;48.878;8.334;2023-03-14T03:17:34;98217.56;;;11.38;78.19
30598;BME280;17365;48.878;8.334;2023-03-14T03:19:59;98214.81;;;11.43;78.06
30598;BME280;17365;48.878;8.334;2023-03-14T03:22:25;98210.50;;;11.42;77.60
30598;BME280;17365;48.878;8.334;2023-03-14T03:24:50;98202.66;;;11.43;77.13
30598;BME280;17365;48.878;8.334;2023-03-14T03:27:15;98195.22;;;11.32;77.91
30598;BME280;17365;48.878;8.334;2023-03-14T03:29:40;98188.06;;;11.41;77.32
30598;BME280;17365;48.878;8.334;2023-03-14T03:32:05;98191.81;;;11.58;75.48
30598;BME280;17365;48.878;8.334;2023-03-14T03:34:30;98188.06;;;11.41;75.89
30598;BME280;17365;48.878;8.334;2023-03-14T03:36:56;98187.94;;;11.44;75.32
30598;BME280;17365;48.878;8.334;2023-03-14T03:39:21;98177.53;;;11.45;75.69
30598;BME280;17365;48.878;8.334;2023-03-14T03:41:46;98169.09;;;11.38;75.26
30598;BME280;17365;48.878;8.334;2023-03-14T03:44:12;98181.28;;;11.36;74.71
30598;BME280;17365;48.878;8.334;2023-03-14T03:46:37;98178.56;;;11.40;73.33
30598;BME280;17365;48.878;8.334;2023-03-14T03:49:02;98171.44;;;11.46;72.91
30598;BME280;17365;48.878;8.334;2023-03-14T03:51:28;98173.81;;;11.52;72.51
30598;BME280;17365;48.878;8.334;2023-03-14T03:53:53;98167.22;;;11.42;72.61
30598;BME280;17365;48.878;8.334;2023-03-14T03:56:18;98170.44;;;11.50;71.66
30598;BME280;17365;48.878;8.334;2023-03-14T03:58:43;98154.09;;;11.47;71.33
30598;BME280;17365;48.878;8.334;2023-03-14T04:01:09;98146.25;;;11.48;71.23
30598;BME280;17365;48.878;8.334;2023-03-14T04:03:34;98167.16;;;11.44;70.96
30598;BME280;17365;48.878;8.334;2023-03-14T04:06:00;98151.25;;;11.54;70.74
30598;BME280;17365;48.878;8.334;2023-03-14T04:08:26;98148.97;;;11.45;70.64
30598;BME280;17365;48.878;8.334;2023-03-14T04:10:54;98157.78;;;11.40;71.04
30598;BME280;17365;48.878;8.334;2023-03-14T04:13:19;98157.41;;;11.25;71.74
30598;BME280;17365;48.878;8.334;2023-03-14T04:15:44;98145.88;;;11.34;71.66
30598;BME280;17365;48.878;8.334;2023-03-14T04:18:09;98148.03;;;11.21;72.18
30598;BME280;17365;48.878;8.334;2023-03-14T04:20:34;98147.22;;;11.19;71.99
30598;BME280;17365;48.878;8.334;2023-03-14T04:23:00;98139.28;;;11.24;72.01
30598;BME280;17365;48.878;8.334;2023-03-14T04:25:25;98129.09;;;11.18;72.23
30598;BME280;17365;48.878;8.334;2023-03-14T04:27:50;98124.69;;;11.20;71.59
30598;BME280;17365;48.878;8.334;2023-03-14T04:30:15;98105.69;;;11.19;71.27
30598;BME280;17365;48.878;8.334;2023-03-14T04:32:40;98111.94;;;11.14;71.60
30598;BME280;17365;48.878;8.334;2023-03-14T04:35:06;98102.41;;;11.14;71.43
30598;BME280;17365;48.878;8.334;2023-03-14T04:37:31;98111.19;;;11.10;71.92
30598;BME280;17365;48.878;8.334;2023-03-14T04:39:56;98111.16;;;11.12;72.02
30598;BME280;17365;48.878;8.334;2023-03-14T04:42:21;98110.09;;;11.17;71.62
30598;BME280;17365;48.878;8.334;2023-03-14T04:44:47;98104.84;;;11.19;71.59
30598;BME280;17365;48.878;8.334;2023-03-14T04:47:14;98108.81;;;11.29;71.28
30598;BME280;17365;48.878;8.334;2023-03-14T04:49:39;98104.38;;;11.32;71.06
30598;BME280;17365;48.878;8.334;2023-03-14T04:52:04;98107.88;;;11.31;71.54
30598;BME280;17365;48.878;8.334;2023-03-14T04:54:29;98107.94;;;11.30;70.94
30598;BME280;17365;48.878;8.334;2023-03-14T04:56:55;98098.88;;;11.42;70.94
30598;BME280;17365;48.878;8.334;2023-03-14T04:59:20;98102.44;;;11.39;71.63
30598;BME280;17365;48.878;8.334;2023-03-14T05:01:45;98098.66;;;11.23;72.18
30598;BME280;17365;48.878;8.334;2023-03-14T05:04:10;98093.84;;;11.37;71.55
30598;BME280;17365;48.878;8.334;2023-03-14T05:06:35;98083.59;;;11.34;72.00
30598;BME280;17365;48.878;8.334;2023-03-14T05:09:00;98084.97;;;11.44;71.34
30598;BME280;17365;48.878;8.334;2023-03-14T05:11:26;98092.28;;;11.31;71.95
30598;BME280;17365;48.878;8.334;2023-03-14T05:13:51;98085.94;;;11.40;71.68
30598;BME280;17365;48.878;8.334;2023-03-14T05:16:16;98081.47;;;11.45;71.14
30598;BME280;17365;48.878;8.334;2023-03-14T05:18:41;98090.25;;;11.41;71.84
30598;BME280;17365;48.878;8.334;2023-03-14T05:21:06;98093.63;;;11.43;71.94
30598;BME280;17365;48.878;8.334;2023-03-14T05:23:32;98104.19;;;11.38;71.53
30598;BME280;17365;48.878;8.334;2023-03-14T05:25:57;98084.97;;;11.44;71.38
30598;BME280;17365;48.878;8.334;2023-03-14T05:28:22;98092.84;;;11.41;71.54
30598;BME280;17365;48.878;8.334;2023-03-14T05:30:47;98086.66;;;11.45;71.51
30598;BME280;17365;48.878;8.334;2023-03-14T05:33:13;98087.94;;;11.33;72.20
30598;BME280;17365;48.878;8.334;2023-03-14T05:35:38;98061.81;;;11.38;71.48
30598;BME280;17365;48.878;8.334;2023-03-14T05:38:03;98076.00;;;11.28;72.05
30598;BME280;17365;48.878;8.334;2023-03-14T05:40:28;98067.25;;;11.30;72.03
30598;BME280;17365;48.878;8.334;2023-03-14T05:42:54;98077.78;;;11.26;72.48
30598;BME280;17365;48.878;8.334;2023-03-14T05:45:19;98070.84;;;11.26;71.72
30598;BME280;17365;48.878;8.334;2023-03-14T05:47:44;98069.28;;;11.21;72.14
30598;BME280;17365;48.878;8.334;2023-03-14T05:50:09;98064.09;;;11.21;72.57
30598;BME280;17365;48.878;8.334;2023-03-14T05:52:35;98055.34;;;11.25;71.84
30598;BME280;17365;48.878;8.334;2023-03-14T05:55:00;98051.47;;;11.12;72.70
30598;BME280;17365;48.878;8.334;2023-03-14T05:57:25;98054.97;;;11.11;72.68
30598;BME280;17365;48.878;8.334;2023-03-14T05:59:50;98045.50;;;11.08;72.68
30598;BME280;17365;48.878;8.334;2023-03-14T06:02:16;98030.91;;;11.05;72.78
30598;BME280;17365;48.878;8.334;2023-03-14T06:04:41;98023.28;;;11.01;73.11
30598;BME280;17365;48.878;8.334;2023-03-14T06:07:06;98029.81;;;11.13;72.52
30598;BME280;17365;48.878;8.334;2023-03-14T06:09:31;98030.84;;;11.07;72.36
30598;BME280;17365;48.878;8.334;2023-03-14T06:11:56;98020.47;;;11.07;72.43
30598;BME280;17365;48.878;8.334;2023-03-14T06:14:22;98025.09;;;10.99;72.44
30598;BME280;17365;48.878;8.334;2023-03-14T06:16:47;98023.41;;;10.96;72.11
30598;BME280;17365;48.878;8.334;2023-03-14T06:19:15;98016.41;;;10.98;72.25
30598;BME280;17365;48.878;8.334;2023-03-14T06:21:40;98026.78;;;11.00;71.83
30598;BME280;17365;48.878;8.334;2023-03-14T06:24:06;98021.38;;;11.06;71.70
30598;BME280;17365;48.878;8.334;2023-03-14T06:26:31;98021.41;;;11.04;71.61
30598;BME280;17365;48.878;8.334;2023-03-14T06:28:56;98020.28;;;11.13;71.62
30598;BME280;17365;48.878;8.334;2023-03-14T06:31:21;98020.75;;;11.24;70.71
30598;BME280;17365;48.878;8.334;2023-03-14T06:33:47;98031.88;;;11.28;70.76
30598;BME280;17365;48.878;8.334;2023-03-14T06:36:12;98023.97;;;11.31;70.73
30598;BME280;17365;48.878;8.334;2023-03-14T06:38:37;98023.06;;;11.32;71.12
30598;BME280;17365;48.878;8.334;2023-03-14T06:41:06;98005.13;;;11.26;71.51
30598;BME280;17365;48.878;8.334;2023-03-14T06:43:32;98017.72;;;11.36;70.71
30598;BME280;17365;48.878;8.334;2023-03-14T06:45:57;98016.94;;;11.34;71.59
30598;BME280;17365;48.878;8.334;2023-03-14T06:48:22;98010.00;;;11.35;71.64
30598;BME280;17365;48.878;8.334;2023-03-14T06:50:48;98017.28;;;11.49;70.96
30598;BME280;17365;48.878;8.334;2023-03-14T06:53:13;98015.59;;;11.48;71.18
30598;BME280;17365;48.878;8.334;2023-03-14T06:55:39;98024.34;;;11.45;71.35
30598;BME280;17365;48.878;8.334;2023-03-14T06:58:04;98010.88;;;11.59;71.02
30598;BME280;17365;48.878;8.334;2023-03-14T07:00:29;98018.78;;;11.56;70.96
30598;BME280;17365;48.878;8.334;2023-03-14T07:02:55;98016.22;;;11.54;71.36
30598;BME280;17365;48.878;8.334;2023-03-14T07:05:20;98025.72;;;11.55;70.76
30598;BME280;17365;48.878;8.334;2023-03-14T07:07:45;98021.25;;;11.59;70.74
30598;BME280;17365;48.878;8.334;2023-03-14T07:10:10;98016.34;;;11.75;70.48
30598;BME280;17365;48.878;8.334;2023-03-14T07:12:35;98020.19;;;11.64;71.20
30598;BME280;17365;48.878;8.334;2023-03-14T07:15:01;98024.03;;;11.79;70.19
30598;BME280;17365;48.878;8.334;2023-03-14T07:17:26;98032.53;;;11.83;69.57
30598;BME280;17365;48.878;8.334;2023-03-14T07:19:51;98034.47;;;12.01;69.06
30598;BME280;17365;48.878;8.334;2023-03-14T07:22:16;98043.59;;;11.88;68.96
30598;BME280;17365;48.878;8.334;2023-03-14T07:24:41;98046.50;;;12.04;68.77
30598;BME280;17365;48.878;8.334;2023-03-14T07:27:07;98052.09;;;11.93;69.16
30598;BME280;17365;48.878;8.334;2023-03-14T07:29:32;98054.22;;;12.05;68.74
30598;BME280;17365;48.878;8.334;2023-03-14T07:31:57;98057.16;;;12.19;68.43
30598;BME280;17365;48.878;8.334;2023-03-14T07:34:22;98062.66;;;12.12;68.78
30598;BME280;17365;48.878;8.334;2023-03-14T07:36:47;98061.22;;;12.27;67.78
30598;BME280;17365;48.878;8.334;2023-03-14T07:39:13;98079.31;;;12.30;67.29
30598;BME280;17365;48.878;8.334;2023-03-14T07:41:38;98071.63;;;12.27;67.43
30598;BME280;17365;48.878;8.334;2023-03-14T07:44:03;98079.03;;;12.37;67.39
30598;BME280;17365;48.878;8.334;2023-03-14T07:46:28;98077.41;;;12.35;66.66
30598;BME280;17365;48.878;8.334;2023-03-14T07:48:53;98078.66;;;12.23;67.76
30598;BME280;17365;48.878;8.334;2023-03-14T07:51:19;98079.13;;;12.34;66.68
30598;BME280;17365;48.878;8.334;2023-03-14T07:53:44;98075.72;;;12.32;66.57
30598;BME280;17365;48.878;8.334;2023-03-14T07:56:10;98070.78;;;12.26;66.98
30598;BME280;17365;48.878;8.334;2023-03-14T07:58:35;98084.31;;;12.12;67.77
30598;BME280;17365;48.878;8.334;2023-03-14T08:01:01;98078.84;;;12.18;67.89
30598;BME280;17365;48.878;8.334;2023-03-14T08:03:26;98089.56;;;12.33;67.55
30598;BME280;17365;48.878;8.334;2023-03-14T08:05:51;98083.84;;;12.24;67.49
30598;BME280;17365;48.878;8.334;2023-03-14T08:08:17;98085.53;;;12.26;68.13
30598;BME280;17365;48.878;8.334;2023-03-14T08:10:42;98093.78;;;12.37;67.83
30598;BME280;17365;48.878;8.334;2023-03-14T08:13:08;98085.63;;;12.46;66.90
30598;BME280;17365;48.878;8.334;2023-03-14T08:15:34;98088.66;;;12.57;66.92
30598;BME280;17365;48.878;8.334;2023-03-14T08:17:59;98104.50;;;12.51;67.59
30598;BME280;17365;48.878;8.334;2023-03-14T08:20:25;98094.50;;;12.40;68.66
30598;BME280;17365;48.878;8.334;2023-03-14T08:22:51;98094.84;;;12.31;69.79
30598;BME280;17365;48.878;8.334;2023-03-14T08:25:16;98110.75;;;12.23;70.75
30598;BME280;17365;48.878;8.334;2023-03-14T08:27:41;98101.22;;;12.22;72.68
30598;BME280;17365;48.878;8.334;2023-03-14T08:30:08;98103.59;;;12.05;73.82
30598;BME280;17365;48.878;8.334;2023-03-14T08:32:34;98107.69;;;12.12;73.69
30598;BME280;17365;48.878;8.334;2023-03-14T08:34:59;98107.28;;;12.23;73.06
30598;BME280;17365;48.878;8.334;2023-03-14T08:37:24;98107.72;;;12.11;71.88
30598;BME280;17365;48.878;8.334;2023-03-14T08:39:50;98110.84;;;12.20;71.68
30598;BME280;17365;48.878;8.334;2023-03-14T08:42:15;98113.56;;;12.17;71.83
30598;BME280;17365;48.878;8.334;2023-03-14T08:44:40;98106.22;;;12.29;71.29
30598;BME280;17365;48.878;8.334;2023-03-14T08:47:06;98107.63;;;12.14;71.92
30598;BME280;17365;48.878;8.334;2023-03-14T08:49:31;98119.22;;;12.29;71.50
30598;BME280;17365;48.878;8.334;2023-03-14T08:51:56;98119.34;;;12.26;71.92
30598;BME280;17365;48.878;8.334;2023-03-14T08:54:22;98111.59;;;12.24;71.64
30598;BME280;17365;48.878;8.334;2023-03-14T08:56:47;98116.47;;;12.32;70.75
30598;BME280;17365;48.878;8.334;2023-03-14T08:59:12;98092.31;;;12.30;69.67
30598;BME280;17365;48.878;8.334;2023-03-14T09:01:37;98115.81;;;12.27;70.03
30598;BME280;17365;48.878;8.334;2023-03-14T09:04:02;98115.06;;;12.23;69.59
30598;BME280;17365;48.878;8.334;2023-03-14T09:06:28;98121.00;;;12.50;68.88
30598;BME280;17365;48.878;8.334;2023-03-14T09:08:53;98135.97;;;12.43;69.18
30598;BME280;17365;48.878;8.334;2023-03-14T09:11:18;98120.81;;;12.54;69.04
30598;BME280;17365;48.878;8.334;2023-03-14T09:13:43;98121.72;;;12.53;68.13
30598;BME280;17365;48.878;8.334;2023-03-14T09:16:09;98122.59;;;12.76;67.37
30598;BME280;17365;48.878;8.334;2023-03-14T09:18:34;98129.13;;;12.64;67.58
30598;BME280;17365;48.878;8.334;2023-03-14T09:20:59;98122.47;;;12.57;67.04
30598;BME280;17365;48.878;8.334;2023-03-14T09:23:24;98128.34;;;12.62;67.75
30598;BME280;17365;48.878;8.334;2023-03-14T09:25:54;98113.41;;;12.89;66.26
30598;BME280;17365;48.878;8.334;2023-03-14T09:28:19;98117.41;;;12.98;66.08
30598;BME280;17365;48.878;8.334;2023-03-14T09:30:44;98126.91;;;12.99;66.11
30598;BME280;17365;48.878;8.334;2023-03-14T09:33:09;98113.13;;;13.19;65.29
30598;BME280;17365;48.878;8.334;2023-03-14T09:35:34;98129.38;;;13.24;65.43
30598;BME280;17365;48.878;8.334;2023-03-14T09:38:00;98133.28;;;12.92;66.22
30598;BME280;17365;48.878;8.334;2023-03-14T09:40:25;98132.16;;;12.75;67.19
30598;BME280;17365;48.878;8.334;2023-03-14T09:42:56;98146.16;;;12.95;66.73
30598;BME280;17365;48.878;8.334;2023-03-14T09:47:46;98161.47;;;12.80;70.15
30598;BME280;17365;48.878;8.334;2023-03-14T09:50:15;98154.53;;;12.79;72.80
30598;BME280;17365;48.878;8.334;2023-03-14T09:52:42;98151.69;;;12.64;74.71
30598;BME280;17365;48.878;8.334;2023-03-14T09:55:15;98160.81;;;12.29;76.47
30598;BME280;17365;48.878;8.334;2023-03-14T09:57:41;98163.34;;;12.30;77.41
30598;BME280;17365;48.878;8.334;2023-03-14T10:02:50;98158.19;;;12.52;78.71
30598;BME280;17365;48.878;8.334;2023-03-14T10:05:17;98159.06;;;12.52;79.80
30598;BME280;17365;48.878;8.334;2023-03-14T10:07:42;98155.09;;;12.42;79.66
30598;BME280;17365;48.878;8.334;2023-03-14T10:10:13;98155.59;;;12.29;80.35
30598;BME280;17365;48.878;8.334;2023-03-14T10:12:39;98169.97;;;12.39;80.08
30598;BME280;17365;48.878;8.334;2023-03-14T10:15:06;98167.38;;;12.39;82.08
30598;BME280;17365;48.878;8.334;2023-03-14T10:17:38;98161.19;;;12.18;82.03
30598;BME280;17365;48.878;8.334;2023-03-14T10:20:03;98164.50;;;12.21;81.81
30598;BME280;17365;48.878;8.334;2023-03-14T10:22:32;98168.53;;;12.07;84.31
30598;BME280;17365;48.878;8.334;2023-03-14T10:25:00;98163.19;;;12.35;83.16
30598;BME280;17365;48.878;8.334;2023-03-14T10:27:29;98165.34;;;12.23;83.29
30598;BME280;17365;48.878;8.334;2023-03-14T10:29:56;98171.53;;;12.19;82.58
30598;BME280;17365;48.878;8.334;2023-03-14T10:32:22;98169.78;;;12.20;83.56
30598;BME280;17365;48.878;8.334;2023-03-14T10:35:04;98171.91;;;12.09;84.81
30598;BME280;17365;48.878;8.334;2023-03-14T10:37:29;98187.41;;;12.12;85.90
30598;BME280;17365;48.878;8.334;2023-03-14T10:39:55;98190.75;;;11.90;86.00
30598;BME280;17365;48.878;8.334;2023-03-14T10:44:58;98195.88;;;11.65;88.92
30598;BME280;17365;48.878;8.334;2023-03-14T10:47:25;98207.56;;;11.52;89.89
30598;BME280;17365;48.878;8.334;2023-03-14T10:49:51;98209.88;;;11.61;89.46
30598;BME280;17365;48.878;8.334;2023-03-14T10:52:21;98226.47;;;11.57;89.10
30598;BME280;17365;48.878;8.334;2023-03-14T10:54:59;98224.09;;;11.76;89.41
30598;BME280;17365;48.878;8.334;2023-03-14T10:57:25;98228.41;;;11.51;89.67
30598;BME280;17365;48.878;8.334;2023-03-14T10:59:50;98237.13;;;11.48;92.42
30598;BME280;17365;48.878;8.334;2023-03-14T11:07:41;98255.56;;;11.13;94.46
30598;BME280;17365;48.878;8.334;2023-03-14T11:15:34;98282.19;;;10.90;97.58
30598;BME280;17365;48.878;8.334;2023-03-14T11:25:40;98332.97;;;10.67;100.00
30598;BME280;17365;48.878;8.334;2023-03-14T11:30:42;98366.16;;;10.53;100.00
30598;BME280;17365;48.878;8.334;2023-03-14T11:33:14;98360.13;;;10.53;100.00
30598;BME280;17365;48.878;8.334;2023-03-14T11:38:34;98398.47;;;10.40;100.00
30598;BME280;17365;48.878;8.334;2023-03-14T11:41:02;98430.13;;;10.53;100.00
30598;BME280;17365;48.878;8.334;2023-03-14T11:43:35;98442.31;;;10.49;99.01
30598;BME280;17365;48.878;8.334;2023-03-14T11:51:38;98490.97;;;9.99;89.93
30598;BME280;17365;48.878;8.334;2023-03-14T11:54:17;98504.38;;;9.78;88.30
30598;BME280;17365;48.878;8.334;2023-03-14T11:56:46;98533.66;;;9.81;85.92
30598;BME280;17365;48.878;8.334;2023-03-14T11:59:16;98545.91;;;9.72;80.56
30598;BME280;17365;48.878;8.334;2023-03-14T12:04:13;98568.97;;;10.27;78.32
30598;BME280;17365;48.878;8.334;2023-03-14T12:06:48;98571.72;;;10.60;76.47
30598;BME280;17365;48.878;8.334;2023-03-14T12:09:13;98578.75;;;11.26;74.12
30598;BME280;17365;48.878;8.334;2023-03-14T12:17:07;98584.84;;;11.25;68.83
30598;BME280;17365;48.878;8.334;2023-03-14T12:19:43;98585.38;;;11.03;67.67
30598;BME280;17365;48.878;8.334;2023-03-14T12:22:21;98592.97;;;11.11;66.87
30598;BME280;17365;48.878;8.334;2023-03-14T12:24:49;98607.44;;;11.21;61.31
30598;BME280;17365;48.878;8.334;2023-03-14T12:27:40;98609.00;;;10.91;60.04
30598;BME280;17365;48.878;8.334;2023-03-14T12:30:01;98619.88;;;11.07;59.67
30598;BME280;17365;48.878;8.334;2023-03-14T12:32:35;98608.25;;;11.23;57.40
30598;BME280;17365;48.878;8.334;2023-03-14T12:35:07;98630.34;;;11.38;58.90
30598;BME280;17365;48.878;8.334;2023-03-14T12:37:36;98621.59;;;11.42;57.77
30598;BME280;17365;48.878;8.334;2023-03-14T12:40:26;98625.75;;;11.49;57.17
30598;BME280;17365;48.878;8.334;2023-03-14T12:42:59;98637.59;;;11.59;55.85
30598;BME280;17365;48.878;8.334;2023-03-14T12:45:28;98647.66;;;11.72;54.67
30598;BME280;17365;48.878;8.334;2023-03-14T12:48:04;98670.28;;;11.34;53.26
30598;BME280;17365;48.878;8.334;2023-03-14T12:50:33;98655.34;;;10.69;52.00
30598;BME280;17365;48.878;8.334;2023-03-14T13:01:00;98676.16;;;11.41;49.30
30598;BME280;17365;48.878;8.334;2023-03-14T13:03:26;98677.13;;;11.71;48.22
30598;BME280;17365;48.878;8.334;2023-03-14T13:06:01;98678.13;;;11.66;49.58
30598;BME280;17365;48.878;8.334;2023-03-14T13:08:41;98681.16;;;11.84;48.02
30598;BME280;17365;48.878;8.334;2023-03-14T13:11:08;98697.25;;;11.62;48.70
30598;BME280;17365;48.878;8.334;2023-03-14T13:13:35;98699.19;;;11.19;49.18
30598;BME280;17365;48.878;8.334;2023-03-14T13:16:01;98706.63;;;11.32;48.74
30598;BME280;17365;48.878;8.334;2023-03-14T13:21:05;98724.38;;;10.76;49.93
30598;BME280;17365;48.878;8.334;2023-03-14T13:23:33;98725.44;;;11.05;50.10
30598;BME280;17365;48.878;8.334;2023-03-14T13:25:59;98744.63;;;10.98;50.18
30598;BME280;17365;48.878;8.334;2023-03-14T13:28:25;98746.09;;;11.11;49.98
30598;BME280;17365;48.878;8.334;2023-03-14T13:30:54;98763.88;;;10.89;50.21
30598;BME280;17365;48.878;8.334;2023-03-14T13:33:21;98788.06;;;10.90;46.64
30598;BME280;17365;48.878;8.334;2023-03-14T13:35:47;98783.00;;;10.84;44.79
30598;BME280;17365;48.878;8.334;2023-03-14T13:38:17;98799.78;;;10.66;44.55
30598;BME280;17365;48.878;8.334;2023-03-14T13:40:43;98799.56;;;10.32;43.80
30598;BME280;17365;48.878;8.334;2023-03-14T13:43:20;98812.34;;;10.42;43.69
30598;BME280;17365;48.878;8.334;2023-03-14T13:48:14;98829.63;;;10.40;44.65
30598;BME280;17365;48.878;8.334;2023-03-14T13:50:44;98823.69;;;10.35;45.35
30598;BME280;17365;48.878;8.334;2023-03-14T13:53:11;98835.88;;;10.32;44.96
30598;BME280;17365;48.878;8.334;2023-03-14T13:55:36;98839.03;;;10.92;44.68
30598;BME280;17365;48.878;8.334;2023-03-14T13:58:01;98837.03;;;11.05;44.89
30598;BME280;17365;48.878;8.334;2023-03-14T14:00:27;98848.00;;;10.74;45.02
30598;BME280;17365;48.878;8.334;2023-03-14T14:02:53;98853.00;;;10.85;45.79